Aérodrome :
LOGIN :

S'inscrire | Disclaimer

   EN    FR    IT 

 










Légende :    VFR   VFR Marginal   IFR   IFR Intensif   IFR Très Intensif
Visi : 
Plafond : 
>= 8 km
>= 3000ft
5 à 8 km
1000 à 3000 ft
1500m à 5 km
500 à 1000 ft
800 à 1500m
200 à 500 ft
< 800m
< 200 ft
Symboles :   Orages  Brouillard  Fortes neiges  Fortes précipitations  Vent > 20 kt
SIGMETs :   Divers  Orages  Givrage  Turbulence  Onde Orograph.  Cendres Volcan.







- Altitude de l'aérodrome : 863 ft
- Code IATA : ZAZ


LEZG - Zaragoza Aragon

DERNIER METAR :
  • 240830Z 31007KT 280V350 9999 FEW040 22/14 Q1019

METARs EXPIRÉS :
  • 240800Z 33006KT 240V020 9999 FEW040 21/13 Q1019
  • 240730Z 30008KT 260V340 9999 FEW040 21/12 Q1019
  • 240700Z 28008KT 250V310 9999 FEW040 20/12 Q1019
  • 240630Z 30006KT 250V330 9999 FEW040 20/12 Q1018
  • 240600Z VRB02KT 9999 FEW040 19/12 Q1018

TAF TAF LEZG
Valide du 24 à 06h jusqu'au 25 à 06h UTC


240500Z 2406/2506 VRB03KT 9999 FEW040 TX36/2414Z TN18/2406Z
BECMG 2416/2418 32010KT
Pas de NOTAMs connus pour ce terrain.
2 SIGMETs publiés pour la FIR Madrid (LECM) :
 
Orages noyés dans la masse
LECM SIGMET 3 VALID 240800/241000 LEVA
LECM MADRID FIR/UIR EMBD TS OBS AT 0742Z WI N4332 W01113 - N4459 W011 - N4458 W01250 - N4336 W01252 - N4332 W01113 TOP FL420 MOV NW 5KT NC=
Orages noyés dans la masse
LECM SIGMET 2 VALID 240538/240800 LEVA
LECM MADRID FIR/UIR EMBD TS OBS AT 0538Z WI N4310 W01120 - N4320 W01250 - N4420 W01240 - N4420 W01040 - N4310 W01120 TOP FL420 MOV NW 10KT NC=



MET'MAP, la Météo Aéronautique d'un coup d'oeil ! - Copyright ORBIFLY Décembre 2007 - Disclaimer

ORBIFLY MET'MAP TEAM :

Programmation & Développement : Alexandra Zaïnal
Conception & Développement : Baudouin d'Aumeries
Co-Programmation & Développement : Marc-Olivier Méhu
Soutien technique & logistique : Manuel Goepfert

Contact : metmap@orbifly.com




SOURCES & CREDITS :

   NOAA